Terminal Aerodrome Forecast
Issued by NWS

Home | Current Version | Previous Version | Text Only | Print | Product List | Glossary On
Versions: 1 2 3 4 5 6 7 8 9 10 11 12 13 14 15 16 17
000
FTUS42 KMLB 051222 AAA
TAFFPR
TAF AMD
KFPR 051222Z 0512/0612 00000KT 6SM BR SCT021
     FM051300 15004KT P6SM SCT025 SCT080
     FM051600 11010KT P6SM VCTS SCT030CB BKN080
      TEMPO 0516/0519 3SM TSRA BKN020CB OVC040
     FM052000 12010KT P6SM SCT030 BKN100
     FM060000 15004KT P6SM SCT050 OVC120=

USA.gov is the U.S. government's official web portal to all federal, state and local government web resources and services.